Time;durP1;ratioP1;P1;durP2;ratioP2;P2;SDS_P1;SDS_P2;PMS_P1;PMS_P2;Temp;Humidity;BMP_temperature;BMP_pressure;BME280_temperature;BME280_humidity;BME280_pressure;Samples;Min_cycle;Max_cycle;Signal;HPM_P1;HPM_P2
2022/09/15 00:00:50;;;;;;;8.87;7.97;;;15.50;99.90;;;;;;6239236;23;20145;-57
2022/09/15 00:03:17;;;;;;;9.67;8.67;;;15.40;99.90;;;;;;6240559;23;20357;-54
2022/09/15 00:05:43;;;;;;;9.43;8.53;;;15.40;99.90;;;;;;6240247;23;20378;-57
2022/09/15 00:08:09;;;;;;;8.90;8.10;;;15.40;99.90;;;;;;6240695;23;20874;-57
2022/09/15 00:10:35;;;;;;;10.00;9.10;;;15.40;99.90;;;;;;6240544;23;20362;-55
2022/09/15 00:13:00;;;;;;;10.23;9.20;;;15.40;99.90;;;;;;6239544;23;20680;-54
2022/09/15 00:15:26;;;;;;;10.77;9.77;;;15.40;99.90;;;;;;6240646;23;20150;-57
2022/09/15 00:17:52;;;;;;;11.00;10.00;;;15.40;99.90;;;;;;6240463;23;20372;-53
2022/09/15 00:20:20;;;;;;;10.10;9.10;;;15.40;99.90;;;;;;6240232;23;20140;-55
2022/09/15 00:22:46;;;;;;;12.30;10.27;;;15.40;99.90;;;;;;6241088;23;20446;-57
2022/09/15 00:25:13;;;;;;;11.63;10.53;;;15.40;99.90;;;;;;6240233;23;20369;-54
2022/09/15 00:27:39;;;;;;;11.73;10.53;;;15.40;99.90;;;;;;6240168;23;20359;-54
2022/09/15 00:30:05;;;;;;;11.83;10.33;;;15.40;99.90;;;;;;6239955;23;20442;-55
2022/09/15 00:32:31;;;;;;;13.63;10.77;;;15.30;99.90;;;;;;6240149;23;20382;-57
2022/09/15 00:34:57;;;;;;;10.90;9.60;;;15.30;99.90;;;;;;6239970;23;20376;-58
2022/09/15 00:37:22;;;;;;;11.83;10.37;;;15.40;99.90;;;;;;6240395;23;20199;-57
2022/09/15 00:39:48;;;;;;;11.47;10.37;;;15.40;99.90;;;;;;6240514;23;20586;-56
2022/09/15 00:42:16;;;;;;;12.60;11.00;;;15.40;99.90;;;;;;6240576;23;20141;-57
2022/09/15 00:44:52;;;;;;;13.27;10.67;;;15.40;99.90;;;;;;6239827;23;20385;-57
2022/09/15 00:47:21;;;;;;;10.93;9.83;;;15.40;99.90;;;;;;6239855;23;20371;-54
2022/09/15 00:49:52;;;;;;;12.30;11.00;;;15.30;99.90;;;;;;6240690;23;20429;-56
2022/09/15 00:52:50;;;;;;;10.97;9.87;;;15.40;99.90;;;;;;6240685;23;20672;-57
2022/09/15 00:55:25;;;;;;;13.23;10.60;;;15.40;99.90;;;;;;6233477;23;20904;-53
2022/09/15 00:57:57;;;;;;;11.70;10.27;;;15.40;99.90;;;;;;6239114;23;20360;-56
2022/09/15 01:00:26;;;;;;;12.17;9.97;;;15.40;99.90;;;;;;6240834;23;20362;-56
2022/09/15 01:02:52;;;;;;;10.63;9.53;;;15.30;99.90;;;;;;6242183;23;20979;-57
2022/09/15 01:05:20;;;;;;;11.57;10.47;;;15.40;99.90;;;;;;6242477;23;20465;-54
2022/09/15 01:08:09;;;;;;;11.23;10.13;;;15.30;99.90;;;;;;6242125;23;20388;-54
2022/09/15 01:10:39;;;;;;;12.10;10.50;;;15.30;99.90;;;;;;6242300;23;20370;-57
2022/09/15 01:13:12;;;;;;;11.80;10.10;;;15.30;99.90;;;;;;6242402;23;20366;-57
2022/09/15 01:16:13;;;;;;;11.50;10.40;;;15.30;99.90;;;;;;6241732;23;20383;-57
2022/09/15 01:19:02;;;;;;;12.27;10.57;;;15.20;99.90;;;;;;6178761;23;20392;-57
2022/09/15 01:21:40;;;;;;;12.10;10.43;;;15.30;99.90;;;;;;6239351;23;20395;-56
2022/09/15 01:24:27;;;;;;;12.70;11.40;;;15.30;99.90;;;;;;6240954;23;20676;-55
2022/09/15 01:27:15;;;;;;;15.47;12.20;;;15.40;99.90;;;;;;6214102;23;20385;-57
2022/09/15 01:30:03;;;;;;;12.70;11.37;;;15.40;99.90;;;;;;6241329;23;20446;-57
2022/09/15 01:33:04;;;;;;;13.83;11.40;;;15.40;99.90;;;;;;6242015;23;20872;-56
2022/09/15 01:36:00;;;;;;;13.27;11.03;;;15.40;99.90;;;;;;6235084;23;20393;-54
2022/09/15 01:38:59;;;;;;;14.20;10.47;;;15.30;99.90;;;;;;6241274;23;20382;-58
2022/09/15 01:41:41;;;;;;;14.93;12.40;;;15.30;99.90;;;;;;6240803;23;20373;-54
2022/09/15 01:44:11;;;;;;;11.63;10.43;;;15.40;99.90;;;;;;6240706;23;20356;-57
2022/09/15 01:46:47;;;;;;;13.17;9.97;;;15.30;99.90;;;;;;6240855;23;20458;-55
2022/09/15 01:49:21;;;;;;;12.90;9.30;;;15.30;99.90;;;;;;6242250;23;20501;-54
2022/09/15 01:51:48;;;;;;;10.70;9.60;;;15.30;99.90;;;;;;6242088;23;20362;-57
2022/09/15 01:54:18;;;;;;;13.03;10.10;;;15.20;99.90;;;;;;6242337;23;20837;-55
2022/09/15 01:56:43;;;;;;;9.70;8.50;;;15.30;99.90;;;;;;6241067;23;20375;-57
2022/09/15 01:59:09;;;;;;;11.17;8.97;;;15.30;99.90;;;;;;6242291;23;20387;-55
2022/09/15 02:01:50;;;;;;;9.93;8.33;;;15.20;99.90;;;;;;6239538;23;20583;-51
2022/09/15 02:04:35;;;;;;;9.63;8.63;;;15.20;99.90;;;;;;6241764;23;20801;-55
2022/09/15 02:07:26;;;;;;;11.37;8.40;;;15.20;99.90;;;;;;6240220;23;20466;-53
2022/09/15 02:10:00;;;;;;;13.17;9.43;;;15.20;99.90;;;;;;6242010;23;20893;-55
2022/09/15 02:12:36;;;;;;;13.17;9.97;;;15.20;99.90;;;;;;6240911;23;20366;-53
2022/09/15 02:15:11;;;;;;;14.43;9.80;;;15.20;99.90;;;;;;6242115;23;20374;-54
2022/09/15 02:17:45;;;;;;;14.77;10.60;;;15.20;99.90;;;;;;6241336;23;20370;-54
2022/09/15 02:20:22;;;;;;;15.10;10.87;;;15.20;99.90;;;;;;6241560;23;20819;-54
2022/09/15 02:22:53;;;;;;;21.30;11.43;;;15.20;99.90;;;;;;6240869;23;20368;-53
2022/09/15 02:25:27;;;;;;;14.60;11.17;;;15.20;99.90;;;;;;6241389;23;20398;-55
2022/09/15 02:27:57;;;;;;;14.10;11.03;;;15.10;99.90;;;;;;6241061;23;20452;-51
2022/09/15 02:30:22;;;;;;;17.60;12.53;;;15.10;99.90;;;;;;6241646;23;20430;-54
2022/09/15 02:32:55;;;;;;;17.43;12.70;;;15.10;99.90;;;;;;6241190;23;20424;-51
2022/09/15 02:35:23;;;;;;;17.80;13.00;;;15.20;99.90;;;;;;6242403;23;21036;-51
2022/09/15 02:37:50;;;;;;;15.60;13.40;;;15.20;99.90;;;;;;6241247;23;20358;-56
2022/09/15 02:40:16;;;;;;;20.37;13.87;;;15.10;99.90;;;;;;6241996;23;20361;-51
2022/09/15 02:42:52;;;;;;;17.53;14.20;;;15.00;99.90;;;;;;6241577;23;20400;-51
2022/09/15 02:45:18;;;;;;;16.47;14.63;;;15.10;99.90;;;;;;6241375;23;20138;-53
2022/09/15 02:47:44;;;;;;;17.10;13.00;;;15.00;99.90;;;;;;6240480;23;20676;-55
2022/09/15 02:50:10;;;;;;;16.70;13.60;;;15.00;99.90;;;;;;6240532;23;20427;-56
2022/09/15 02:52:36;;;;;;;16.70;12.20;;;15.00;99.90;;;;;;6241279;23;20212;-54
2022/09/15 02:55:03;;;;;;;14.70;12.27;;;15.00;99.90;;;;;;6241607;23;20382;-55
2022/09/15 02:57:28;;;;;;;14.40;11.70;;;15.00;99.90;;;;;;6240852;23;20377;-54
2022/09/15 03:00:12;;;;;;;14.80;12.13;;;15.00;99.90;;;;;;6241799;23;20366;-53
2022/09/15 03:02:48;;;;;;;14.20;11.83;;;15.00;99.90;;;;;;6214299;23;20165;-52
2022/09/15 03:05:16;;;;;;;14.33;12.83;;;14.90;99.90;;;;;;6241713;23;20431;-57
2022/09/15 03:07:42;;;;;;;15.73;11.53;;;15.00;99.90;;;;;;6240774;23;20392;-57
2022/09/15 03:10:10;;;;;;;15.17;11.10;;;14.90;99.90;;;;;;6241612;23;20413;-53
2022/09/15 03:12:45;;;;;;;14.97;10.67;;;14.90;99.90;;;;;;6240774;23;20377;-54
2022/09/15 03:15:13;;;;;;;14.93;10.87;;;14.80;99.90;;;;;;6240170;23;20431;-55
2022/09/15 03:17:42;;;;;;;12.93;9.40;;;14.80;99.90;;;;;;6240882;23;20380;-54
2022/09/15 03:20:11;;;;;;;14.70;10.17;;;14.80;99.90;;;;;;6241722;23;20409;-55
2022/09/15 03:22:36;;;;;;;12.80;9.87;;;14.80;99.90;;;;;;6241295;23;20831;-55
2022/09/15 03:25:04;;;;;;;12.00;10.70;;;14.80;99.90;;;;;;6240650;23;20351;-54
2022/09/15 03:27:30;;;;;;;15.57;10.57;;;14.80;99.90;;;;;;6240860;23;20160;-53
2022/09/15 03:29:55;;;;;;;12.43;9.93;;;14.80;99.90;;;;;;6240734;23;20486;-53
2022/09/15 03:32:21;;;;;;;13.33;10.93;;;14.80;99.90;;;;;;6240591;23;20382;-55
2022/09/15 03:34:47;;;;;;;13.10;10.77;;;14.80;99.90;;;;;;6240075;23;20231;-49
2022/09/15 03:37:13;;;;;;;15.87;11.30;;;14.80;99.90;;;;;;6240956;23;20419;-57
2022/09/15 03:39:38;;;;;;;18.43;11.60;;;14.80;99.90;;;;;;6240510;23;20146;-57
2022/09/15 03:42:04;;;;;;;11.63;10.30;;;14.80;99.90;;;;;;6213893;23;20597;-56
2022/09/15 03:44:29;;;;;;;12.80;11.17;;;14.80;99.90;;;;;;6240954;23;20150;-56
2022/09/15 03:46:56;;;;;;;15.10;10.70;;;14.80;99.90;;;;;;6240889;23;20860;-54
2022/09/15 03:49:23;;;;;;;12.73;11.20;;;14.80;99.90;;;;;;6240057;23;20178;-57
2022/09/15 03:51:49;;;;;;;14.13;11.70;;;14.80;99.90;;;;;;6239221;23;20364;-56
2022/09/15 03:54:15;;;;;;;12.23;10.93;;;14.80;99.90;;;;;;6213682;23;20383;-56
2022/09/15 03:56:41;;;;;;;12.73;10.60;;;14.80;99.90;;;;;;6241247;23;20507;-55
2022/09/15 03:59:07;;;;;;;16.87;12.00;;;14.80;99.90;;;;;;6240048;23;20381;-54
2022/09/15 04:01:33;;;;;;;13.50;11.10;;;14.80;99.90;;;;;;6241443;23;20515;-57
2022/09/15 04:03:58;;;;;;;14.17;11.37;;;14.80;99.90;;;;;;6240267;23;20389;-55
2022/09/15 04:06:25;;;;;;;13.97;11.30;;;14.80;99.90;;;;;;6240196;23;20459;-56
2022/09/15 04:08:52;;;;;;;11.83;10.50;;;14.80;99.90;;;;;;6239865;23;20173;-57
2022/09/15 04:11:19;;;;;;;13.63;12.23;;;14.90;99.90;;;;;;6240662;23;20878;-55
2022/09/15 04:13:46;;;;;;;12.57;11.17;;;14.90;99.90;;;;;;6240608;23;20681;-52
2022/09/15 04:16:17;;;;;;;16.20;12.20;;;15.00;99.90;;;;;;6239325;23;20365;-56
2022/09/15 04:18:43;;;;;;;12.20;10.80;;;14.90;99.90;;;;;;6231322;23;20924;-54
2022/09/15 04:21:12;;;;;;;13.50;10.70;;;14.90;99.90;;;;;;6230444;23;20466;-56
2022/09/15 04:23:39;;;;;;;11.30;10.17;;;15.00;99.90;;;;;;6231000;23;20154;-53
2022/09/15 04:26:07;;;;;;;14.77;11.47;;;15.00;99.90;;;;;;6231846;23;20475;-54
2022/09/15 04:28:35;;;;;;;14.20;12.17;;;15.00;99.90;;;;;;6230414;23;20415;-55
2022/09/15 04:31:12;;;;;;;13.80;11.70;;;15.00;99.90;;;;;;6231632;23;20545;-51
2022/09/15 04:33:39;;;;;;;16.87;10.90;;;15.00;99.90;;;;;;6231806;23;20373;-55
2022/09/15 04:36:08;;;;;;;14.57;11.23;;;14.90;99.90;;;;;;6231920;23;20375;-50
2022/09/15 04:38:34;;;;;;;12.87;10.83;;;15.00;99.90;;;;;;6240412;23;21107;-54
2022/09/15 04:41:00;;;;;;;13.63;11.10;;;15.00;99.90;;;;;;6242138;23;20436;-50
2022/09/15 04:43:26;;;;;;;15.30;11.13;;;15.00;99.90;;;;;;6242931;23;20977;-54
2022/09/15 04:45:53;;;;;;;15.13;11.30;;;15.00;99.90;;;;;;6242122;23;20393;-52
2022/09/15 04:48:18;;;;;;;16.43;11.93;;;15.00;99.90;;;;;;6242436;23;20439;-50
2022/09/15 04:50:44;;;;;;;14.40;11.40;;;15.00;99.90;;;;;;6242762;23;20453;-54
2022/09/15 04:53:10;;;;;;;18.47;12.87;;;15.00;99.90;;;;;;6214838;23;20476;-51
2022/09/15 04:55:36;;;;;;;17.40;12.13;;;15.00;99.90;;;;;;6241987;23;20144;-56
2022/09/15 04:58:02;;;;;;;16.67;12.70;;;15.10;99.90;;;;;;6241932;23;20148;-49
2022/09/15 05:00:29;;;;;;;14.13;11.60;;;15.10;99.90;;;;;;6241629;23;20381;-55
2022/09/15 05:02:54;;;;;;;16.40;12.83;;;15.10;99.90;;;;;;6214485;23;20377;-56
2022/09/15 05:05:20;;;;;;;17.37;12.20;;;15.10;99.90;;;;;;6242230;23;20363;-55
2022/09/15 05:07:46;;;;;;;22.70;13.83;;;15.00;99.90;;;;;;6241957;23;20158;-52
2022/09/15 05:10:13;;;;;;;15.97;12.23;;;15.00;99.90;;;;;;6241818;23;20172;-56
2022/09/15 05:12:38;;;;;;;21.00;13.40;;;15.10;99.90;;;;;;6242007;23;20359;-54
2022/09/15 05:15:05;;;;;;;16.10;11.90;;;15.10;99.90;;;;;;6242166;23;20683;-54
2022/09/15 05:17:31;;;;;;;16.80;12.53;;;15.10;99.90;;;;;;6241445;23;20159;-52
2022/09/15 05:20:00;;;;;;;16.10;13.00;;;15.00;99.90;;;;;;6241953;23;20395;-52
2022/09/15 05:22:26;;;;;;;16.93;12.73;;;15.10;99.90;;;;;;6241685;23;20371;-55
2022/09/15 05:24:52;;;;;;;16.50;13.07;;;15.10;99.90;;;;;;6241966;23;20738;-49
2022/09/15 05:27:18;;;;;;;17.00;12.70;;;15.10;99.90;;;;;;6241776;23;20375;-54
2022/09/15 05:29:44;;;;;;;17.80;12.70;;;15.10;99.90;;;;;;6241587;23;20559;-52
2022/09/15 05:32:09;;;;;;;16.40;13.17;;;15.10;99.90;;;;;;6214720;23;20153;-52
2022/09/15 05:34:35;;;;;;;18.93;12.87;;;15.10;99.90;;;;;;6241812;23;20141;-53
2022/09/15 05:37:01;;;;;;;20.57;13.70;;;15.20;99.90;;;;;;6241547;23;20260;-56
2022/09/15 05:39:27;;;;;;;18.27;13.70;;;15.20;99.90;;;;;;6242459;23;20150;-55
2022/09/15 05:41:53;;;;;;;16.37;12.90;;;15.20;99.90;;;;;;6241618;23;20818;-54
2022/09/15 05:44:20;;;;;;;15.60;12.93;;;15.20;99.90;;;;;;6241486;23;20159;-54
2022/09/15 05:46:46;;;;;;;18.10;14.10;;;15.20;99.90;;;;;;6240587;23;20173;-53
2022/09/15 05:49:11;;;;;;;19.07;12.67;;;15.30;99.90;;;;;;6240999;23;20904;-54
2022/09/15 05:51:37;;;;;;;18.87;12.83;;;15.30;99.90;;;;;;6241319;23;20429;-52
2022/09/15 05:54:03;;;;;;;16.80;12.40;;;15.30;99.90;;;;;;6241618;23;20221;-56
2022/09/15 05:56:28;;;;;;;17.93;13.33;;;15.40;99.90;;;;;;6241912;23;20180;-52
2022/09/15 05:58:54;;;;;;;16.00;14.07;;;15.40;99.90;;;;;;6240839;23;20149;-53
2022/09/15 06:01:22;;;;;;;16.77;13.53;;;15.50;99.90;;;;;;6241461;23;20147;-55
2022/09/15 06:03:48;;;;;;;17.53;13.10;;;15.50;99.90;;;;;;6241425;23;20167;-55
2022/09/15 06:06:14;;;;;;;17.47;13.47;;;15.50;99.90;;;;;;6241114;23;20372;-51
2022/09/15 06:08:47;;;;;;;17.47;12.60;;;15.60;99.90;;;;;;6241242;23;20683;-56
2022/09/15 06:11:24;;;;;;;17.83;12.80;;;15.60;99.90;;;;;;6241401;23;20432;-54
2022/09/15 06:13:50;;;;;;;15.30;12.47;;;15.70;99.90;;;;;;6241265;23;20450;-55
2022/09/15 06:16:18;;;;;;;17.00;13.40;;;15.70;99.90;;;;;;6240081;23;20394;-53
2022/09/15 06:18:45;;;;;;;16.13;12.60;;;15.70;99.90;;;;;;6241118;23;20157;-53
2022/09/15 06:21:13;;;;;;;17.37;12.73;;;15.80;99.90;;;;;;6241168;23;20375;-54
2022/09/15 06:23:39;;;;;;;21.00;13.00;;;15.80;99.90;;;;;;6214032;23;20388;-55
2022/09/15 06:26:13;;;;;;;17.50;12.63;;;15.90;99.90;;;;;;6241079;23;20378;-50
2022/09/15 06:28:43;;;;;;;18.10;13.40;;;15.90;99.90;;;;;;6241076;23;20570;-56
2022/09/15 06:31:11;;;;;;;15.00;12.60;;;16.10;99.90;;;;;;6240651;23;20486;-55
2022/09/15 06:33:40;;;;;;;14.10;12.47;;;16.10;99.90;;;;;;6240858;23;20361;-55
2022/09/15 06:36:06;;;;;;;18.37;12.77;;;16.10;99.90;;;;;;6241314;23;20695;-51
2022/09/15 06:38:32;;;;;;;16.17;12.80;;;16.10;99.90;;;;;;6241062;23;20375;-55
2022/09/15 06:40:58;;;;;;;14.07;12.13;;;16.10;99.90;;;;;;6241132;23;20490;-49
2022/09/15 06:43:24;;;;;;;14.53;11.43;;;16.20;99.90;;;;;;6240107;23;20157;-56
2022/09/15 06:45:51;;;;;;;13.00;10.40;;;16.30;99.90;;;;;;6239608;23;20719;-56
2022/09/15 06:48:16;;;;;;;11.90;9.40;;;16.50;99.90;;;;;;6240908;23;20416;-50
2022/09/15 06:50:42;;;;;;;11.30;9.00;;;16.50;99.90;;;;;;6240973;23;20439;-54
2022/09/15 06:53:07;;;;;;;11.97;8.40;;;16.60;99.90;;;;;;6240639;23;20388;-55
2022/09/15 06:55:33;;;;;;;13.27;9.43;;;16.70;99.90;;;;;;6241320;23;20141;-53
2022/09/15 06:57:59;;;;;;;10.00;8.90;;;16.80;99.90;;;;;;6240669;23;20153;-54
2022/09/15 07:00:24;;;;;;;10.00;8.03;;;16.90;99.90;;;;;;6240063;23;20161;-56
2022/09/15 07:02:50;;;;;;;14.27;9.40;;;16.90;99.90;;;;;;6240748;23;20149;-56
2022/09/15 07:05:16;;;;;;;11.83;8.60;;;16.90;99.90;;;;;;6240603;23;20176;-52
2022/09/15 07:07:42;;;;;;;10.17;7.93;;;17.10;99.90;;;;;;6240651;23;20205;-54
2022/09/15 07:10:08;;;;;;;8.90;7.50;;;17.20;86.40;;;;;;6240872;23;20416;-53
2022/09/15 07:12:33;;;;;;;10.07;7.70;;;17.30;46.70;;;;;;6240511;23;20180;-54
2022/09/15 07:14:59;;;;;;;8.13;7.07;;;17.40;50.00;;;;;;6240398;23;20402;-56
2022/09/15 07:17:25;;;;;;;10.73;7.57;;;17.40;54.40;;;;;;6240521;23;20548;-54
2022/09/15 07:19:51;;;;;;;10.70;7.43;;;17.40;84.00;;;;;;6240696;23;20156;-57
2022/09/15 07:22:17;;;;;;;12.40;7.13;;;17.60;63.50;;;;;;6240574;23;20365;-52
2022/09/15 07:24:42;;;;;;;10.17;7.40;;;17.70;39.40;;;;;;6240595;23;20427;-53
2022/09/15 07:27:08;;;;;;;7.20;6.50;;;17.90;27.20;;;;;;6240618;23;20650;-58
2022/09/15 07:29:34;;;;;;;8.30;6.37;;;18.00;26.20;;;;;;6240240;23;20228;-56
2022/09/15 07:32:00;;;;;;;9.97;6.53;;;18.00;16.60;;;;;;6240487;23;20140;-57
2022/09/15 07:34:25;;;;;;;10.93;6.53;;;18.00;5.70;;;;;;6240184;23;20215;-54
2022/09/15 07:36:51;;;;;;;7.13;5.70;;;18.00;19.10;;;;;;6240369;23;20146;-55
2022/09/15 07:39:16;;;;;;;8.13;5.90;;;18.10;13.20;;;;;;6240358;23;20165;-57
2022/09/15 07:41:42;;;;;;;7.20;5.60;;;18.00;9.40;;;;;;6238386;23;20466;-54
2022/09/15 07:44:10;;;;;;;10.10;6.17;;;18.10;1.00;;;;;;6238665;23;20139;-54
2022/09/15 07:46:36;;;;;;;8.33;5.67;;;18.10;1.00;;;;;;6240945;23;20188;-51
2022/09/15 07:49:02;;;;;;;6.53;5.10;;;18.10;1.00;;;;;;6240128;23;20427;-57
2022/09/15 07:51:28;;;;;;;9.77;5.63;;;18.20;1.00;;;;;;6213449;23;20141;-55
2022/09/15 07:53:54;;;;;;;5.93;5.10;;;18.30;1.00;;;;;;6213041;23;20479;-56
2022/09/15 07:56:20;;;;;;;7.37;5.93;;;18.40;1.00;;;;;;6240646;23;20138;-56
2022/09/15 07:58:47;;;;;;;6.97;4.90;;;18.40;1.00;;;;;;6240318;23;20225;-54
2022/09/15 08:01:13;;;;;;;8.23;5.57;;;18.40;1.00;;;;;;6240378;23;20379;-53
2022/09/15 08:03:45;;;;;;;8.63;5.53;;;18.50;1.00;;;;;;6240337;23;20423;-56
2022/09/15 08:06:12;;;;;;;11.17;5.40;;;18.50;1.00;;;;;;6240205;23;20380;-54
2022/09/15 08:08:39;;;;;;;9.00;5.93;;;18.50;1.00;;;;;;6240092;23;20735;-51
2022/09/15 08:11:13;;;;;;;8.47;5.10;;;18.70;1.00;;;;;;6240081;23;20703;-51
2022/09/15 08:13:39;;;;;;;7.50;5.00;;;19.00;1.00;;;;;;6242419;23;20913;-52
2022/09/15 08:16:12;;;;;;;10.60;5.07;;;19.30;1.00;;;;;;6242651;23;20387;-56
2022/09/15 08:18:40;;;;;;;5.63;4.27;;;19.40;1.00;;;;;;6242413;23;20153;-56
2022/09/15 08:21:08;;;;;;;5.63;4.50;;;19.60;1.00;;;;;;6242341;23;20730;-51
2022/09/15 08:23:34;;;;;;;5.53;4.67;;;19.50;1.00;;;;;;6242318;23;20399;-54
2022/09/15 08:26:00;;;;;;;8.63;5.03;;;19.80;99.90;;;;;;6242188;23;20734;-53
2022/09/15 08:28:25;;;;;;;6.60;4.57;;;19.70;99.90;;;;;;6242407;23;20426;-51
2022/09/15 08:31:02;;;;;;;7.70;4.40;;;19.50;99.90;;;;;;6242063;23;20201;-52
2022/09/15 08:33:28;;;;;;;7.13;5.00;;;19.40;1.00;;;;;;6242289;23;20148;-52
2022/09/15 08:35:58;;;;;;;8.07;4.77;;;19.30;1.00;;;;;;6242236;23;20380;-53
2022/09/15 08:38:24;;;;;;;7.83;5.43;;;19.00;99.90;;;;;;6242228;23;20385;-55
2022/09/15 08:41:00;;;;;;;7.57;6.43;;;18.90;99.90;;;;;;6241552;23;20815;-57
2022/09/15 08:43:31;;;;;;;8.80;6.10;;;18.90;99.90;;;;;;6242248;23;20143;-55
2022/09/15 08:46:04;;;;;;;7.90;7.10;;;18.70;1.00;;;;;;6241873;23;20371;-54
2022/09/15 08:48:35;;;;;;;7.97;6.87;;;18.50;1.00;;;;;;6241814;23;20416;-51
2022/09/15 08:51:09;;;;;;;7.40;6.33;;;18.50;1.00;;;;;;6241972;23;20451;-55
2022/09/15 08:53:42;;;;;;;11.27;7.40;;;18.50;1.00;;;;;;6241373;23;20373;-58
2022/09/15 08:56:19;;;;;;;8.13;7.20;;;18.40;1.00;;;;;;6241985;23;20393;-53
2022/09/15 08:58:45;;;;;;;12.23;8.10;;;18.30;1.00;;;;;;6241626;23;20364;-57
2022/09/15 09:01:54;;;;;;;10.33;9.23;;;18.20;1.00;;;;;;6242292;23;20356;-55
2022/09/15 09:04:38;;;;;;;10.67;9.40;;;18.30;1.00;;;;;;6242005;23;20788;-57
2022/09/15 09:07:25;;;;;;;10.97;9.87;;;18.40;1.00;;;;;;6242024;23;20813;-56
2022/09/15 09:09:59;;;;;;;10.23;9.10;;;18.50;1.00;;;;;;6214471;23;20432;-58
2022/09/15 09:12:54;;;;;;;10.47;8.10;;;18.50;1.00;;;;;;6242024;23;20358;-51
2022/09/15 09:15:42;;;;;;;9.00;7.73;;;18.50;1.00;;;;;;6237247;23;20394;-54
2022/09/15 09:18:36;;;;;;;9.90;8.53;;;18.70;99.90;;;;;;6241674;23;20387;-55
2022/09/15 09:21:17;;;;;;;8.70;7.80;;;18.70;99.90;;;;;;6242045;23;20388;-57
2022/09/15 09:23:53;;;;;;;8.40;6.83;;;18.80;99.90;;;;;;6241588;23;20556;-55
2022/09/15 09:26:20;;;;;;;13.03;7.30;;;19.00;99.90;;;;;;6241498;23;20448;-56
2022/09/15 09:29:01;;;;;;;8.60;6.00;;;19.10;99.90;;;;;;6241592;23;20428;-54
2022/09/15 09:31:27;;;;;;;7.43;6.30;;;19.30;99.90;;;;;;6241437;23;20438;-54
2022/09/15 09:34:16;;;;;;;7.30;6.40;;;19.40;99.90;;;;;;6241615;23;20394;-51
2022/09/15 09:36:42;;;;;;;7.30;6.60;;;19.50;1.00;;;;;;6241853;23;20469;-57
2022/09/15 09:39:12;;;;;;;6.90;5.80;;;19.60;99.90;;;;;;6241665;23;20368;-58
2022/09/15 09:41:40;;;;;;;6.33;5.23;;;19.50;99.90;;;;;;6241485;23;20151;-56
2022/09/15 09:44:11;;;;;;;7.93;5.13;;;19.50;1.00;;;;;;6241724;23;20403;-52
2022/09/15 09:46:37;;;;;;;6.87;4.50;;;19.50;1.00;;;;;;6214729;23;20388;-56
2022/09/15 09:49:03;;;;;;;5.07;4.57;;;19.60;1.00;;;;;;6241414;23;20430;-56
2022/09/15 09:51:37;;;;;;;6.27;4.93;;;19.70;99.90;;;;;;6214398;23;20495;-56
2022/09/15 09:54:15;;;;;;;5.97;4.87;;;19.70;1.00;;;;;;6241570;23;20141;-54
2022/09/15 09:56:42;;;;;;;6.90;5.47;;;19.80;1.00;;;;;;6241352;23;20364;-56
2022/09/15 09:59:47;;;;;;;5.50;4.80;;;19.70;1.00;;;;;;6241419;23;20407;-54
2022/09/15 10:02:24;;;;;;;7.77;4.80;;;19.70;99.90;;;;;;6241399;23;20742;-56
2022/09/15 10:05:01;;;;;;;6.93;4.70;;;19.50;1.00;;;;;;6241472;23;20368;-57
2022/09/15 10:07:27;;;;;;;5.00;4.40;;;19.50;1.00;;;;;;6240976;23;20972;-55
2022/09/15 10:09:56;;;;;;;6.17;4.33;;;19.60;1.00;;;;;;6241195;23;20498;-55
2022/09/15 10:12:28;;;;;;;5.97;5.40;;;19.60;99.90;;;;;;6239274;23;20168;-53
2022/09/15 10:14:57;;;;;;;5.33;4.20;;;19.60;1.00;;;;;;6241759;23;20368;-57
2022/09/15 10:17:45;;;;;;;4.83;4.30;;;19.60;37.10;;;;;;6241559;23;20399;-57
2022/09/15 10:20:31;;;;;;;3.93;3.63;;;19.60;1.00;;;;;;6240063;23;20537;-53
2022/09/15 10:23:21;;;;;;;6.90;5.37;;;19.50;1.00;;;;;;6241833;23;20364;-54
2022/09/15 10:25:47;;;;;;;6.00;4.50;;;19.40;99.90;;;;;;6241433;23;20372;-56
2022/09/15 10:28:20;;;;;;;4.70;4.13;;;19.10;1.00;;;;;;6241302;23;20375;-51
2022/09/15 10:30:59;;;;;;;5.23;4.73;;;18.90;1.00;;;;;;6240816;23;20431;-57
2022/09/15 10:33:31;;;;;;;8.43;4.67;;;18.60;99.90;;;;;;6241154;23;20414;-55
2022/09/15 10:36:18;;;;;;;4.80;4.40;;;18.40;1.00;;;;;;6240971;23;20666;-57
2022/09/15 10:38:45;;;;;;;7.87;4.70;;;18.20;1.00;;;;;;6241330;23;20823;-54
2022/09/15 10:41:26;;;;;;;5.23;4.73;;;18.10;99.90;;;;;;6240985;23;20432;-53
2022/09/15 10:44:30;;;;;;;5.50;4.97;;;18.10;99.90;;;;;;6241269;23;20369;-53
2022/09/15 10:47:29;;;;;;;4.87;4.10;;;18.00;1.00;;;;;;6241012;23;20448;-53
2022/09/15 10:50:21;;;;;;;5.60;3.90;;;17.90;99.90;;;;;;6240796;23;20423;-52
2022/09/15 10:53:17;;;;;;;4.53;4.10;;;17.80;1.00;;;;;;6241033;23;20356;-58
2022/09/15 10:55:55;;;;;;;4.90;4.10;;;17.80;22.30;;;;;;6240741;23;20680;-53
2022/09/15 10:58:26;;;;;;;5.03;4.53;;;17.80;1.00;;;;;;6240818;23;20348;-53
2022/09/15 11:01:13;;;;;;;5.57;4.30;;;17.90;1.00;;;;;;6240830;23;20877;-55
2022/09/15 11:04:13;;;;;;;5.50;3.93;;;18.00;99.90;;;;;;6240852;23;20468;-53
2022/09/15 11:06:57;;;;;;;6.23;3.90;;;18.30;1.00;;;;;;6239071;23;20391;-51
2022/09/15 11:09:28;;;;;;;4.33;3.93;;;18.40;99.90;;;;;;6240570;23;20890;-53
2022/09/15 11:12:26;;;;;;;6.17;4.50;;;18.70;99.90;;;;;;6240625;23;20361;-53
2022/09/15 11:15:30;;;;;;;5.33;4.80;;;18.90;99.90;;;;;;6229191;23;20391;-54
2022/09/15 11:18:15;;;;;;;6.07;5.10;;;19.20;1.00;;;;;;6240117;23;20368;-52
2022/09/15 11:21:11;;;;;;;7.00;5.17;;;19.50;31.20;;;;;;6239346;23;20466;-55
2022/09/15 11:24:06;;;;;;;5.70;4.97;;;19.60;99.90;;;;;;6240774;23;20462;-57
2022/09/15 11:26:37;;;;;;;5.37;4.87;;;19.70;99.90;;;;;;6224923;23;20407;-52
2022/09/15 11:29:13;;;;;;;5.73;5.17;;;19.60;61.40;;;;;;6240339;23;20921;-56
2022/09/15 11:31:41;;;;;;;5.60;4.70;;;19.80;99.90;;;;;;6240408;23;20368;-56
2022/09/15 11:34:27;;;;;;;6.10;5.60;;;20.00;99.90;;;;;;6240567;23;20808;-56
2022/09/15 11:37:02;;;;;;;6.50;5.90;;;20.10;99.90;;;;;;6240819;23;20371;-54
2022/09/15 11:39:53;;;;;;;7.30;6.60;;;20.20;1.00;;;;;;6240415;23;20474;-54
2022/09/15 11:42:31;;;;;;;6.17;5.67;;;20.20;99.90;;;;;;6240397;23;20360;-53
2022/09/15 11:44:59;;;;;;;7.80;5.80;;;20.00;1.00;;;;;;6240198;23;20762;-54
2022/09/15 11:47:47;;;;;;;5.90;5.40;;;19.80;1.00;;;;;;6239705;23;20372;-56
2022/09/15 11:50:19;;;;;;;5.50;5.00;;;19.70;99.90;;;;;;6240036;23;20430;-56
2022/09/15 11:53:32;;;;;;;5.33;4.93;;;19.50;1.00;;;;;;6240346;23;20364;-55
2022/09/15 11:56:40;;;;;;;5.53;5.03;;;19.30;99.90;;;;;;6222267;23;20922;-57
2022/09/15 11:59:31;;;;;;;5.10;4.60;;;19.10;99.90;;;;;;6206794;23;20407;-53
2022/09/15 12:02:07;;;;;;;5.40;5.00;;;19.10;40.80;;;;;;6240209;23;20811;-53
2022/09/15 12:05:08;;;;;;;5.30;4.90;;;19.40;90.80;;;;;;6240357;23;20669;-57
2022/09/15 12:07:42;;;;;;;5.57;5.07;;;19.50;1.00;;;;;;6240151;23;20369;-54
2022/09/15 12:10:19;;;;;;;5.50;4.97;;;19.60;99.90;;;;;;6240408;23;20420;-55
2022/09/15 12:12:46;;;;;;;5.73;5.20;;;19.70;1.00;;;;;;6240272;23;20362;-56
2022/09/15 12:15:15;;;;;;;5.90;5.30;;;19.90;99.90;;;;;;6240339;23;20369;-51
2022/09/15 12:17:53;;;;;;;6.00;5.60;;;20.00;1.00;;;;;;6240217;23;20360;-52
2022/09/15 12:20:31;;;;;;;5.90;5.30;;;20.10;99.90;;;;;;6240332;23;20850;-54
2022/09/15 12:23:15;;;;;;;5.70;5.20;;;20.30;99.90;;;;;;6239724;23;20724;-56
2022/09/15 12:25:54;;;;;;;5.70;5.07;;;20.50;99.90;;;;;;6240673;23;20368;-55
2022/09/15 12:28:23;;;;;;;6.13;5.53;;;20.70;99.90;;;;;;6240088;23;20399;-56
2022/09/15 12:31:27;;;;;;;5.33;4.90;;;20.90;99.90;;;;;;6239740;23;21147;-56
2022/09/15 12:34:03;;;;;;;5.10;4.70;;;21.30;1.00;;;;;;6240179;23;20410;-56
2022/09/15 12:36:32;;;;;;;9.70;5.53;;;21.60;99.90;;;;;;6239467;23;20364;-52
2022/09/15 12:38:59;;;;;;;5.70;5.30;;;21.60;99.90;;;;;;6240465;23;20375;-53
2022/09/15 12:41:25;;;;;;;6.40;5.90;;;21.70;25.60;;;;;;6240291;23;20396;-55
2022/09/15 12:44:13;;;;;;;7.10;6.27;;;21.50;1.00;;;;;;6240198;23;20410;-56
2022/09/15 12:46:39;;;;;;;6.20;5.70;;;21.20;99.90;;;;;;6240265;23;20364;-54
2022/09/15 12:49:04;;;;;;;6.00;5.50;;;21.00;99.90;;;;;;6239959;23;20481;-56
2022/09/15 12:51:30;;;;;;;7.07;6.47;;;21.00;99.90;;;;;;6239931;23;20155;-57
2022/09/15 12:54:03;;;;;;;6.57;6.10;;;21.00;99.90;;;;;;6239558;23;20149;-57
2022/09/15 12:56:31;;;;;;;7.27;6.63;;;21.00;99.90;;;;;;6240131;23;20222;-54
2022/09/15 12:59:05;;;;;;;6.10;5.60;;;20.90;99.90;;;;;;6241728;23;20365;-49
2022/09/15 13:01:41;;;;;;;6.80;6.30;;;21.10;99.90;;;;;;6242151;23;20993;-55
2022/09/15 13:04:21;;;;;;;6.43;6.00;;;21.00;99.90;;;;;;6241861;23;20398;-57